Time,TemperatureF,DewpointF,PressureIn,WindDirection,WindDirectionDegrees,WindSpeedMPH,WindSpeedGustMPH,Humidity,HourlyPrecipIn,Conditions,Clouds,dailyrainin,SoftwareType,DateUTC
2013-02-18 00:02:00,26.0,18.0,-100.00,SE,130,0.0,0.0,72,0.00,,,-99.99,,2013-02-18 06:02:00,
2013-02-18 00:11:00,26.0,18.0,-100.00,SE,130,0.0,0.0,72,0.00,,,-99.99,,2013-02-18 06:11:00,
2013-02-18 00:21:00,26.0,18.0,-100.00,SE,130,0.0,0.0,72,0.00,,,-99.99,,2013-02-18 06:21:00,
2013-02-18 00:42:00,27.0,19.0,-100.00,SSE,165,0.0,0.0,72,0.00,,,-99.99,,2013-02-18 06:42:00,
2013-02-18 00:52:00,27.0,19.0,-100.00,SSE,165,0.0,0.0,72,0.00,,,-99.99,,2013-02-18 06:52:00,
2013-02-18 01:01:00,27.0,19.0,-100.00,SSE,165,0.0,0.0,72,0.00,,,-99.99,,2013-02-18 07:01:00,
2013-02-18 01:11:00,27.0,19.0,-100.00,SSE,165,0.0,0.0,72,0.00,,,-99.99,,2013-02-18 07:11:00,
2013-02-18 01:21:00,27.0,19.0,-100.00,SSE,165,0.0,0.0,72,0.00,,,-99.99,,2013-02-18 07:21:00,
2013-02-18 01:42:00,28.0,20.0,-100.00,South,170,0.0,0.0,72,0.00,,,-99.99,,2013-02-18 07:42:00,
2013-02-18 01:52:00,28.0,20.0,-100.00,South,170,0.0,0.0,72,0.00,,,-99.99,,2013-02-18 07:52:00,
2013-02-18 02:01:00,28.0,20.0,-100.00,South,170,0.0,0.0,72,0.00,,,-99.99,,2013-02-18 08:01:00,
2013-02-18 02:11:00,28.0,20.0,-100.00,South,170,0.0,0.0,72,0.00,,,-99.99,,2013-02-18 08:11:00,
2013-02-18 02:20:00,29.0,21.0,-100.00,South,175,0.0,0.0,73,0.00,,,-99.99,,2013-02-18 08:20:00,
2013-02-18 02:21:00,28.0,20.0,-100.00,South,170,0.0,0.0,72,0.00,,,-99.99,,2013-02-18 08:21:00,
2013-02-18 02:42:00,29.0,21.0,-100.00,South,175,0.0,0.0,73,0.00,,,-99.99,,2013-02-18 08:42:00,
2013-02-18 02:52:00,29.0,21.0,-100.00,South,175,0.0,0.0,73,0.00,,,-99.99,,2013-02-18 08:52:00,
2013-02-18 03:02:00,29.0,21.0,-100.00,South,175,0.0,0.0,73,0.00,,,-99.99,,2013-02-18 09:02:00,
2013-02-18 03:11:00,29.0,21.0,-100.00,South,175,0.0,0.0,73,0.00,,,-99.99,,2013-02-18 09:11:00,
2013-02-18 03:20:00,29.0,22.0,-100.00,South,175,0.0,0.0,74,0.00,,,-99.99,,2013-02-18 09:20:00,
2013-02-18 03:42:00,29.0,22.0,-100.00,South,175,0.0,0.0,74,0.00,,,-99.99,,2013-02-18 09:42:00,
2013-02-18 03:52:00,29.0,22.0,-100.00,South,175,0.0,0.0,74,0.00,,,-99.99,,2013-02-18 09:52:00,
2013-02-18 04:01:00,29.0,22.0,-100.00,South,175,0.0,0.0,74,0.00,,,-99.99,,2013-02-18 10:01:00,
2013-02-18 04:11:00,29.0,22.0,-100.00,South,175,0.0,0.0,74,0.00,,,-99.99,,2013-02-18 10:11:00,
2013-02-18 04:20:00,29.0,23.0,-100.00,SSW,205,0.0,0.0,77,0.00,,,-99.99,,2013-02-18 10:20:00,
2013-02-18 04:42:00,29.0,23.0,-100.00,SSW,205,0.0,0.0,77,0.00,,,-99.99,,2013-02-18 10:42:00,
2013-02-18 04:53:00,29.0,23.0,-100.00,SSW,205,0.0,0.0,77,0.00,,,-99.99,,2013-02-18 10:53:00,
2013-02-18 05:01:00,29.0,23.0,-100.00,SSW,205,0.0,0.0,77,0.00,,,-99.99,,2013-02-18 11:01:00,
2013-02-18 05:11:00,29.0,23.0,-100.00,SSW,205,0.0,0.0,77,0.00,,,-99.99,,2013-02-18 11:11:00,
2013-02-18 05:21:00,30.0,24.0,-100.00,South,190,0.0,0.0,78,0.00,,,-99.99,,2013-02-18 11:21:00,
2013-02-18 05:43:00,30.0,24.0,-100.00,South,190,0.0,0.0,78,0.00,,,-99.99,,2013-02-18 11:43:00,
2013-02-18 05:53:00,30.0,24.0,-100.00,South,190,0.0,0.0,78,0.00,,,-99.99,,2013-02-18 11:53:00,
2013-02-18 06:02:00,30.0,24.0,-100.00,South,190,0.0,0.0,78,0.00,,,-99.99,,2013-02-18 12:02:00,
2013-02-18 06:11:00,30.0,24.0,-100.00,South,190,0.0,0.0,78,0.00,,,-99.99,,2013-02-18 12:11:00,
2013-02-18 06:20:00,30.0,24.0,-100.00,SSW,195,0.0,0.0,80,0.00,,,-99.99,,2013-02-18 12:20:00,
2013-02-18 06:42:00,30.0,24.0,-100.00,SSW,195,0.0,0.0,80,0.00,,,-99.99,,2013-02-18 12:42:00,
2013-02-18 06:53:00,30.0,24.0,-100.00,SSW,195,0.0,0.0,80,0.00,,,-99.99,,2013-02-18 12:53:00,
2013-02-18 07:03:00,30.0,24.0,-100.00,SSW,195,0.0,0.0,80,0.00,,,-99.99,,2013-02-18 13:03:00,
2013-02-18 07:12:00,30.0,24.0,-100.00,SSW,195,0.0,0.0,80,0.00,,,-99.99,,2013-02-18 13:12:00,
2013-02-18 07:20:00,30.0,25.0,-100.00,SSW,210,0.0,0.0,82,0.00,,,-99.99,,2013-02-18 13:20:00,
2013-02-18 07:42:00,30.0,25.0,-100.00,SSW,210,0.0,0.0,82,0.00,,,-99.99,,2013-02-18 13:42:00,
2013-02-18 07:53:00,30.0,25.0,-100.00,SSW,210,0.0,0.0,82,0.00,,,-99.99,,2013-02-18 13:53:00,
2013-02-18 08:02:00,30.0,25.0,-100.00,SSW,210,0.0,0.0,82,0.00,,,-99.99,,2013-02-18 14:02:00,
2013-02-18 08:11:00,30.0,25.0,-100.00,SSW,210,0.0,0.0,82,0.00,,,-99.99,,2013-02-18 14:11:00,
2013-02-18 08:42:00,32.0,26.0,-100.00,NW,305,0.0,0.0,78,0.00,,,-99.99,,2013-02-18 14:42:00,
2013-02-18 08:53:00,32.0,26.0,-100.00,NW,305,0.0,0.0,78,0.00,,,-99.99,,2013-02-18 14:53:00,
2013-02-18 09:02:00,32.0,26.0,-100.00,NW,305,0.0,0.0,78,0.00,,,-99.99,,2013-02-18 15:02:00,
2013-02-18 09:11:00,32.0,26.0,-100.00,NW,305,0.0,0.0,78,0.00,,,-99.99,,2013-02-18 15:11:00,
2013-02-18 09:20:00,35.0,27.0,-100.00,SW,235,0.0,0.0,72,0.00,,,-99.99,,2013-02-18 15:20:00,
2013-02-18 09:42:00,35.0,27.0,-100.00,SW,235,0.0,0.0,72,0.00,,,-99.99,,2013-02-18 15:42:00,
2013-02-18 09:53:00,35.0,27.0,-100.00,SW,235,0.0,0.0,72,0.00,,,-99.99,,2013-02-18 15:53:00,
2013-02-18 10:03:00,35.0,27.0,-100.00,SW,235,0.0,0.0,72,0.00,,,-99.99,,2013-02-18 16:03:00,
2013-02-18 10:12:00,35.0,27.0,-100.00,SW,235,0.0,0.0,72,0.00,,,-99.99,,2013-02-18 16:12:00,
2013-02-18 10:20:00,38.0,28.0,-100.00,WSW,240,0.0,0.0,65,0.00,,,-99.99,,2013-02-18 16:20:00,
2013-02-18 10:43:00,38.0,28.0,-100.00,WSW,240,0.0,0.0,65,0.00,,,-99.99,,2013-02-18 16:43:00,
2013-02-18 10:53:00,38.0,28.0,-100.00,WSW,240,0.0,0.0,65,0.00,,,-99.99,,2013-02-18 16:53:00,
2013-02-18 11:04:00,38.0,28.0,-100.00,WSW,240,0.0,0.0,65,0.00,,,-99.99,,2013-02-18 17:04:00,
2013-02-18 11:12:00,38.0,28.0,-100.00,WSW,240,0.0,0.0,65,0.00,,,-99.99,,2013-02-18 17:12:00,
2013-02-18 11:43:00,40.0,27.0,-100.00,West,270,0.0,0.0,61,0.00,,,-99.99,,2013-02-18 17:43:00,
2013-02-18 11:53:00,40.0,27.0,-100.00,West,270,0.0,0.0,61,0.00,,,-99.99,,2013-02-18 17:53:00,
2013-02-18 12:02:00,40.0,27.0,-100.00,West,270,0.0,0.0,61,0.00,,,-99.99,,2013-02-18 18:02:00,
2013-02-18 12:12:00,40.0,27.0,-100.00,West,270,0.0,0.0,61,0.00,,,-99.99,,2013-02-18 18:12:00,
2013-02-18 12:20:00,41.0,28.0,-100.00,West,275,0.0,0.0,58,0.00,,,-99.99,,2013-02-18 18:20:00,
2013-02-18 12:43:00,41.0,28.0,-100.00,West,275,0.0,0.0,58,0.00,,,-99.99,,2013-02-18 18:43:00,
2013-02-18 12:53:00,41.0,28.0,-100.00,West,275,0.0,0.0,58,0.00,,,-99.99,,2013-02-18 18:53:00,
2013-02-18 13:03:00,41.0,28.0,-100.00,West,275,0.0,0.0,58,0.00,,,-99.99,,2013-02-18 19:03:00,
2013-02-18 13:12:00,41.0,28.0,-100.00,West,275,0.0,0.0,58,0.00,,,-99.99,,2013-02-18 19:12:00,
2013-02-18 13:43:00,41.0,29.0,-100.00,WNW,295,0.0,0.0,61,0.00,,,-99.99,,2013-02-18 19:43:00,
2013-02-18 13:53:00,41.0,29.0,-100.00,WNW,295,0.0,0.0,61,0.00,,,-99.99,,2013-02-18 19:53:00,
2013-02-18 14:02:00,41.0,29.0,-100.00,WNW,295,0.0,0.0,61,0.00,,,-99.99,,2013-02-18 20:02:00,
2013-02-18 14:12:00,41.0,29.0,-100.00,WNW,295,0.0,0.0,61,0.00,,,-99.99,,2013-02-18 20:12:00,
2013-02-18 14:43:00,40.0,29.0,-100.00,West,265,0.0,0.0,63,0.00,,,-99.99,,2013-02-18 20:43:00,
2013-02-18 14:53:00,40.0,29.0,-100.00,West,265,0.0,0.0,63,0.00,,,-99.99,,2013-02-18 20:53:00,
2013-02-18 15:03:00,40.0,29.0,-100.00,West,265,0.0,0.0,63,0.00,,,-99.99,,2013-02-18 21:03:00,
2013-02-18 15:12:00,40.0,29.0,-100.00,West,265,0.0,0.0,63,0.00,,,-99.99,,2013-02-18 21:12:00,
2013-02-18 15:43:00,37.0,29.0,-100.00,NW,305,0.0,0.0,73,0.00,,,-99.99,,2013-02-18 21:43:00,
2013-02-18 15:53:00,37.0,29.0,-100.00,NW,305,0.0,0.0,73,0.00,,,-99.99,,2013-02-18 21:53:00,
2013-02-18 16:02:00,37.0,29.0,-100.00,NW,305,0.0,0.0,73,0.00,,,-99.99,,2013-02-18 22:02:00,
2013-02-18 16:12:00,37.0,29.0,-100.00,NW,305,0.0,0.0,73,0.00,,,-99.99,,2013-02-18 22:12:00,
2013-02-18 16:22:00,35.0,33.0,-100.00,NW,305,0.0,0.0,93,0.00,,,-99.99,,2013-02-18 22:22:00,
2013-02-18 16:43:00,35.0,33.0,-100.00,NW,305,0.0,0.0,93,0.00,,,-99.99,,2013-02-18 22:43:00,
2013-02-18 16:53:00,35.0,33.0,-100.00,NW,305,0.0,0.0,93,0.00,,,-99.99,,2013-02-18 22:53:00,
2013-02-18 17:02:00,35.0,33.0,-100.00,NW,305,0.0,0.0,93,0.00,,,-99.99,,2013-02-18 23:02:00,
2013-02-18 17:12:00,35.0,33.0,-100.00,NW,305,0.0,0.0,93,0.00,,,-99.99,,2013-02-18 23:12:00,
2013-02-18 17:43:00,33.0,33.0,-100.00,NW,310,0.0,0.0,99,0.00,,,-99.99,,2013-02-18 23:43:00,
2013-02-18 17:53:00,33.0,33.0,-100.00,NW,310,0.0,0.0,99,0.00,,,-99.99,,2013-02-18 23:53:00,
2013-02-18 18:03:00,33.0,33.0,-100.00,NW,310,0.0,0.0,99,0.00,,,-99.99,,2013-02-19 00:03:00,
2013-02-18 18:12:00,33.0,33.0,-100.00,NW,310,0.0,0.0,99,0.00,,,-99.99,,2013-02-19 00:12:00,
2013-02-18 18:21:00,29.0,29.0,-100.00,WNW,300,0.0,0.0,99,0.00,,,-99.99,,2013-02-19 00:21:00,
2013-02-18 18:44:00,29.0,29.0,-100.00,WNW,300,0.0,0.0,99,0.00,,,-99.99,,2013-02-19 00:44:00,
2013-02-18 18:55:00,29.0,29.0,-100.00,WNW,300,0.0,0.0,99,0.00,,,-99.99,,2013-02-19 00:55:00,
2013-02-18 19:03:00,29.0,29.0,-100.00,WNW,300,0.0,0.0,99,0.00,,,-99.99,,2013-02-19 01:03:00,
2013-02-18 19:14:00,29.0,29.0,-100.00,WNW,300,0.0,0.0,99,0.00,,,-99.99,,2013-02-19 01:14:00,
2013-02-18 19:20:00,26.0,26.0,-100.00,NW,310,0.0,0.0,99,0.00,,,-99.99,,2013-02-19 01:20:00,
2013-02-18 19:45:00,26.0,26.0,-100.00,NW,310,0.0,0.0,99,0.00,,,-99.99,,2013-02-19 01:45:00,
2013-02-18 19:56:00,26.0,26.0,-100.00,NW,310,0.0,0.0,99,0.00,,,-99.99,,2013-02-19 01:56:00,
2013-02-18 20:03:00,26.0,26.0,-100.00,NW,310,0.0,0.0,99,0.00,,,-99.99,,2013-02-19 02:03:00,
2013-02-18 20:13:00,26.0,26.0,-100.00,NW,310,0.0,0.0,99,0.00,,,-99.99,,2013-02-19 02:13:00,
2013-02-18 20:44:00,23.0,22.0,-100.00,WNW,285,0.0,0.0,94,0.00,,,-99.99,,2013-02-19 02:44:00,
2013-02-18 20:55:00,23.0,22.0,-100.00,WNW,285,0.0,0.0,94,0.00,,,-99.99,,2013-02-19 02:55:00,
2013-02-18 21:06:00,23.0,22.0,-100.00,WNW,285,0.0,0.0,94,0.00,,,-99.99,,2013-02-19 03:06:00,
2013-02-18 21:14:00,23.0,22.0,-100.00,WNW,285,0.0,0.0,94,0.00,,,-99.99,,2013-02-19 03:14:00,
2013-02-18 21:45:00,21.0,18.0,-100.00,NW,305,0.0,0.0,89,0.00,,,-99.99,,2013-02-19 03:45:00,
2013-02-18 21:55:00,21.0,18.0,-100.00,NW,305,0.0,0.0,89,0.00,,,-99.99,,2013-02-19 03:55:00,
2013-02-18 22:02:00,21.0,18.0,-100.00,NW,305,0.0,0.0,89,0.00,,,-99.99,,2013-02-19 04:02:00,
2013-02-18 22:14:00,21.0,18.0,-100.00,NW,305,0.0,0.0,89,0.00,,,-99.99,,2013-02-19 04:14:00,
2013-02-18 22:45:00,19.0,18.0,-100.00,WNW,300,0.0,0.0,95,0.00,,,-99.99,,2013-02-19 04:45:00,
2013-02-18 22:55:00,19.0,18.0,-100.00,WNW,300,0.0,0.0,95,0.00,,,-99.99,,2013-02-19 04:55:00,
2013-02-18 23:02:00,19.0,18.0,-100.00,WNW,300,0.0,0.0,95,0.00,,,-99.99,,2013-02-19 05:02:00,
2013-02-18 23:12:00,19.0,18.0,-100.00,WNW,300,0.0,0.0,95,0.00,,,-99.99,,2013-02-19 05:12:00,
2013-02-18 23:43:00,18.0,18.0,-100.00,NW,305,0.0,0.0,99,0.00,,,-99.99,,2013-02-19 05:43:00,
2013-02-18 23:52:00,18.0,18.0,-100.00,NW,305,0.0,0.0,99,0.00,,,-99.99,,2013-02-19 05:52:00,